Time;durP1;ratioP1;P1;durP2;ratioP2;P2;SDS_P1;SDS_P2;PMS_P1;PMS_P2;Temp;Humidity;BMP_temperature;BMP_pressure;BME280_temperature;BME280_humidity;BME280_pressure;Samples;Min_cycle;Max_cycle;Signal;HPM_P1;HPM_P2
2021/07/05 00:01:49;;;;;;;4.75;4.25;;;15.90;99.90;;;;;;4190491;28;20040;-60
2021/07/05 00:03:50;;;;;;;6.72;3.90;;;15.90;99.90;;;;;;4192511;28;20621;-58
2021/07/05 00:05:51;;;;;;;5.78;4.15;;;15.90;99.90;;;;;;4190965;28;20036;-60
2021/07/05 00:07:53;;;;;;;8.30;4.25;;;15.90;99.90;;;;;;4192494;28;20029;-60
2021/07/05 00:09:54;;;;;;;9.65;4.70;;;15.90;99.90;;;;;;4191057;28;20020;-59
2021/07/05 00:11:55;;;;;;;6.28;4.32;;;15.90;99.90;;;;;;4192251;28;20477;-60
2021/07/05 00:13:56;;;;;;;6.82;4.75;;;15.90;99.90;;;;;;4191778;28;20052;-60
2021/07/05 00:15:58;;;;;;;11.18;4.80;;;15.80;99.90;;;;;;4190989;28;20137;-59
2021/07/05 00:18:05;;;;;;;6.47;5.22;;;15.80;99.90;;;;;;4191926;28;20037;-60
2021/07/05 00:20:08;;;;;;;13.05;5.07;;;15.80;99.90;;;;;;4190432;28;20459;-60
2021/07/05 00:22:10;;;;;;;5.63;4.35;;;15.80;99.90;;;;;;4192136;28;20501;-60
2021/07/05 00:24:11;;;;;;;5.80;4.50;;;15.70;99.90;;;;;;4191046;28;20074;-60
2021/07/05 00:26:12;;;;;;;5.43;4.38;;;15.70;99.90;;;;;;4192543;28;20041;-60
2021/07/05 00:28:14;;;;;;;6.97;5.13;;;15.70;99.90;;;;;;4191318;28;20078;-59
2021/07/05 00:30:16;;;;;;;7.30;4.70;;;15.70;99.90;;;;;;4192521;28;20097;-60
2021/07/05 00:32:17;;;;;;;7.88;5.05;;;15.70;99.90;;;;;;4190452;28;20058;-60
2021/07/05 00:34:19;;;;;;;9.18;5.43;;;15.60;99.90;;;;;;4192343;28;20033;-60
2021/07/05 00:36:20;;;;;;;6.03;4.65;;;15.70;99.90;;;;;;4189897;28;20548;-59
2021/07/05 00:38:21;;;;;;;7.75;4.93;;;15.70;99.90;;;;;;4192353;28;20048;-60
2021/07/05 00:40:23;;;;;;;10.10;5.30;;;15.60;99.90;;;;;;4190810;28;20056;-60
2021/07/05 00:42:25;;;;;;;7.00;4.45;;;15.60;99.90;;;;;;4192214;28;20109;-60
2021/07/05 00:44:26;;;;;;;6.97;4.55;;;15.60;99.90;;;;;;4191032;28;20021;-59
2021/07/05 00:46:27;;;;;;;7.53;4.68;;;15.60;99.90;;;;;;4191117;28;20102;-60
2021/07/05 00:48:28;;;;;;;8.70;5.75;;;15.50;99.90;;;;;;4190587;28;20169;-60
2021/07/05 00:50:29;;;;;;;9.60;5.13;;;15.50;99.90;;;;;;4190358;28;20032;-60
2021/07/05 00:52:31;;;;;;;4.78;4.30;;;15.50;99.90;;;;;;4190885;28;20153;-58
2021/07/05 00:54:33;;;;;;;7.32;4.43;;;15.40;99.90;;;;;;4190023;28;20484;-60
2021/07/05 00:56:34;;;;;;;9.98;5.28;;;15.40;99.90;;;;;;4192372;28;20028;-57
2021/07/05 00:58:35;;;;;;;7.10;5.13;;;15.40;99.90;;;;;;4190356;28;20404;-60
2021/07/05 01:00:38;;;;;;;13.13;5.28;;;15.30;99.90;;;;;;4191474;28;20106;-58
2021/07/05 01:02:40;;;;;;;6.28;4.85;;;15.30;99.90;;;;;;4190262;28;20090;-59
2021/07/05 01:04:41;;;;;;;6.72;5.60;;;15.30;99.90;;;;;;4191851;28;20078;-60
2021/07/05 01:06:42;;;;;;;6.88;4.72;;;15.30;99.90;;;;;;4189990;28;20430;-60
2021/07/05 01:08:43;;;;;;;9.85;5.28;;;15.20;99.90;;;;;;4191098;28;20738;-59
2021/07/05 01:10:44;;;;;;;7.90;5.55;;;15.20;99.90;;;;;;4190221;28;20480;-59
2021/07/05 01:12:46;;;;;;;8.63;5.65;;;15.10;99.90;;;;;;4191585;28;20049;-60
2021/07/05 01:14:48;;;;;;;8.02;5.55;;;15.10;99.90;;;;;;4189882;28;20024;-58
2021/07/05 01:16:49;;;;;;;7.53;5.35;;;15.00;99.90;;;;;;4191379;28;20100;-60
2021/07/05 01:18:52;;;;;;;10.55;5.20;;;15.10;99.90;;;;;;4191094;28;20090;-58
2021/07/05 01:20:54;;;;;;;6.38;5.45;;;15.10;99.90;;;;;;4190772;28;20484;-60
2021/07/05 01:22:56;;;;;;;10.18;5.30;;;15.00;99.90;;;;;;4190666;28;20827;-57
2021/07/05 01:24:57;;;;;;;9.90;5.40;;;15.10;99.90;;;;;;4190319;28;20032;-60
2021/07/05 01:26:59;;;;;;;6.35;4.95;;;15.00;99.90;;;;;;4191832;28;20033;-58
2021/07/05 01:29:00;;;;;;;7.25;4.55;;;15.00;99.90;;;;;;4189477;28;20036;-60
2021/07/05 01:31:02;;;;;;;6.47;5.35;;;15.00;99.90;;;;;;4191242;28;20110;-58
2021/07/05 01:33:08;;;;;;;12.82;4.88;;;15.00;99.90;;;;;;4189938;28;20082;-60
2021/07/05 01:35:11;;;;;;;5.50;4.85;;;15.00;99.90;;;;;;4191370;28;20040;-58
2021/07/05 01:37:12;;;;;;;9.43;5.45;;;15.00;99.90;;;;;;4189444;28;20024;-59
2021/07/05 01:39:13;;;;;;;7.03;4.97;;;15.00;99.90;;;;;;4191717;28;20036;-59
2021/07/05 01:41:14;;;;;;;7.93;5.05;;;15.00;99.90;;;;;;4189189;28;20089;-59
2021/07/05 01:43:15;;;;;;;6.40;5.20;;;14.90;99.90;;;;;;4191645;28;20040;-59
2021/07/05 01:45:18;;;;;;;5.47;4.90;;;14.90;99.90;;;;;;4189572;28;20033;-59
2021/07/05 01:47:20;;;;;;;12.25;5.10;;;14.90;99.90;;;;;;4191019;28;20481;-60
2021/07/05 01:49:21;;;;;;;11.82;5.10;;;14.90;99.90;;;;;;4189567;28;20028;-59
2021/07/05 01:51:22;;;;;;;6.55;4.93;;;14.90;99.90;;;;;;4190548;28;20755;-60
2021/07/05 01:53:23;;;;;;;9.60;4.85;;;14.90;99.90;;;;;;4189469;28;20487;-60
2021/07/05 01:55:33;;;;;;;7.82;4.63;;;14.90;99.90;;;;;;4191457;28;20485;-60
2021/07/05 01:57:35;;;;;;;6.30;4.82;;;14.90;99.90;;;;;;4190230;28;20045;-60
2021/07/05 01:59:36;;;;;;;6.65;4.32;;;14.90;99.90;;;;;;4189429;28;20036;-59
2021/07/05 02:01:38;;;;;;;6.80;5.20;;;14.90;99.90;;;;;;4190655;28;20044;-61
2021/07/05 02:03:39;;;;;;;7.45;4.85;;;14.90;99.90;;;;;;4189080;28;20028;-59
2021/07/05 02:05:41;;;;;;;7.47;5.03;;;14.90;99.90;;;;;;4190849;28;20029;-58
2021/07/05 02:07:44;;;;;;;4.85;4.32;;;14.90;99.90;;;;;;4189133;28;20021;-59
2021/07/05 02:09:46;;;;;;;7.90;4.97;;;15.00;99.90;;;;;;4191312;28;21180;-60
2021/07/05 02:11:47;;;;;;;12.75;5.18;;;15.00;99.90;;;;;;4189196;28;20436;-58
2021/07/05 02:13:50;;;;;;;6.40;4.32;;;15.00;99.90;;;;;;4190363;28;20501;-57
2021/07/05 02:15:53;;;;;;;7.47;4.35;;;14.90;99.90;;;;;;4187261;28;20036;-59
2021/07/05 02:17:54;;;;;;;5.65;4.78;;;15.00;99.90;;;;;;4190647;28;20028;-61
2021/07/05 02:19:55;;;;;;;7.85;5.07;;;14.90;99.90;;;;;;4189304;28;20093;-60
2021/07/05 02:21:56;;;;;;;8.05;3.78;;;15.00;99.90;;;;;;4190115;28;20040;-60
2021/07/05 02:23:57;;;;;;;12.10;4.78;;;14.90;99.90;;;;;;4189111;28;20024;-57
2021/07/05 02:25:59;;;;;;;6.28;4.10;;;14.90;99.90;;;;;;4189865;28;20366;-60
2021/07/05 02:28:06;;;;;;;6.95;3.65;;;14.90;99.90;;;;;;4189239;28;20044;-59
2021/07/05 02:30:10;;;;;;;6.07;4.47;;;14.90;99.90;;;;;;4189605;28;20535;-59
2021/07/05 02:32:11;;;;;;;6.35;3.85;;;14.90;99.90;;;;;;4189566;28;20048;-57
2021/07/05 02:34:13;;;;;;;5.80;4.65;;;14.90;99.90;;;;;;4188954;28;20761;-60
2021/07/05 02:36:14;;;;;;;8.60;4.18;;;14.90;99.90;;;;;;4189391;28;20078;-59
2021/07/05 02:38:16;;;;;;;4.80;3.90;;;14.90;99.90;;;;;;4188981;28;20032;-60
2021/07/05 02:40:20;;;;;;;7.72;4.50;;;14.90;99.90;;;;;;4189346;28;20040;-60
2021/07/05 02:42:21;;;;;;;7.75;3.85;;;14.90;99.90;;;;;;4188694;28;20036;-60
2021/07/05 02:44:22;;;;;;;8.77;4.78;;;14.90;99.90;;;;;;4190624;28;20040;-60
2021/07/05 02:46:24;;;;;;;8.07;5.00;;;14.90;99.90;;;;;;4188380;28;20032;-59
2021/07/05 02:48:29;;;;;;;17.35;11.57;;;14.90;99.90;;;;;;4190078;28;20554;-59
2021/07/05 02:50:31;;;;;;;23.27;12.23;;;14.90;99.90;;;;;;4186915;28;20074;-57
2021/07/05 02:52:32;;;;;;;6.85;4.75;;;14.90;99.90;;;;;;4188560;28;20040;-59
2021/07/05 02:54:33;;;;;;;6.95;4.30;;;14.90;99.90;;;;;;4186790;28;20044;-57
2021/07/05 02:56:35;;;;;;;6.70;4.32;;;14.80;99.90;;;;;;4190256;28;20028;-60
2021/07/05 02:58:37;;;;;;;4.22;3.70;;;14.80;99.90;;;;;;4188421;28;20077;-60
2021/07/05 03:00:44;;;;;;;4.25;3.85;;;14.80;99.90;;;;;;4189659;28;20102;-58
2021/07/05 03:02:46;;;;;;;6.50;3.88;;;14.80;99.90;;;;;;4187374;28;20488;-58
2021/07/05 03:04:47;;;;;;;9.75;4.53;;;14.90;99.90;;;;;;4189859;28;20044;-60
2021/07/05 03:06:49;;;;;;;8.90;5.05;;;15.00;99.90;;;;;;4189147;28;20016;-59
2021/07/05 03:08:50;;;;;;;5.93;4.13;;;15.00;99.90;;;;;;4189517;28;20037;-57
2021/07/05 03:10:52;;;;;;;6.15;4.32;;;15.00;99.90;;;;;;4189349;28;20032;-59
2021/07/05 03:12:54;;;;;;;5.40;4.70;;;15.00;99.90;;;;;;4186737;28;20036;-59
2021/07/05 03:14:55;;;;;;;5.93;3.90;;;15.00;99.90;;;;;;4189864;28;20372;-59
2021/07/05 03:16:56;;;;;;;8.40;4.50;;;15.10;99.90;;;;;;4187676;28;20094;-60
2021/07/05 03:18:57;;;;;;;4.93;4.22;;;15.10;99.90;;;;;;4189909;28;20095;-59
2021/07/05 03:20:59;;;;;;;5.95;4.20;;;15.10;99.90;;;;;;4188069;28;20501;-60
2021/07/05 03:23:02;;;;;;;8.43;5.22;;;15.20;99.90;;;;;;4190108;28;20052;-59
2021/07/05 03:25:06;;;;;;;9.55;4.78;;;15.20;99.90;;;;;;4187961;28;20094;-59
2021/07/05 03:27:07;;;;;;;8.07;5.07;;;15.10;99.90;;;;;;4190145;28;20098;-60
2021/07/05 03:29:08;;;;;;;8.20;4.90;;;15.20;99.90;;;;;;4191192;28;20029;-60
2021/07/05 03:31:09;;;;;;;7.40;4.78;;;15.30;99.90;;;;;;4192539;28;20044;-60
2021/07/05 03:33:11;;;;;;;8.25;5.40;;;15.30;99.90;;;;;;4191583;28;20048;-60
2021/07/05 03:35:13;;;;;;;7.78;4.72;;;15.40;99.90;;;;;;4192729;28;20040;-60
2021/07/05 03:37:14;;;;;;;10.55;4.85;;;15.30;99.90;;;;;;4192092;28;20009;-61
2021/07/05 03:39:15;;;;;;;8.50;5.35;;;15.40;99.90;;;;;;4191763;28;20020;-60
2021/07/05 03:41:16;;;;;;;9.90;5.03;;;15.40;99.90;;;;;;4192255;28;20045;-60
2021/07/05 03:43:18;;;;;;;10.32;5.45;;;15.50;99.90;;;;;;4191035;28;20086;-60
2021/07/05 03:45:23;;;;;;;8.15;5.45;;;15.40;99.90;;;;;;4192804;28;20439;-59
2021/07/05 03:47:24;;;;;;;7.18;5.38;;;15.40;99.90;;;;;;4191005;28;20074;-60
2021/07/05 03:49:25;;;;;;;13.00;5.90;;;15.40;99.90;;;;;;4192871;28;20037;-60
2021/07/05 03:51:26;;;;;;;10.40;5.38;;;15.30;99.90;;;;;;4191109;28;20028;-60
2021/07/05 03:53:28;;;;;;;8.93;5.28;;;15.20;99.90;;;;;;4192865;28;20117;-60
2021/07/05 03:55:30;;;;;;;10.73;5.03;;;15.30;99.90;;;;;;4190681;28;20032;-61
2021/07/05 03:57:32;;;;;;;8.48;5.63;;;15.40;99.90;;;;;;4192611;28;20086;-60
2021/07/05 03:59:33;;;;;;;7.88;5.25;;;15.40;99.90;;;;;;4190529;28;20569;-59
2021/07/05 04:01:34;;;;;;;7.97;5.53;;;15.60;99.90;;;;;;4191756;28;20044;-60
2021/07/05 04:03:36;;;;;;;11.45;5.95;;;15.70;99.90;;;;;;4191026;28;20060;-61
2021/07/05 04:05:37;;;;;;;7.43;5.20;;;15.80;99.90;;;;;;4192395;28;20024;-60
2021/07/05 04:07:40;;;;;;;11.30;5.60;;;15.90;99.90;;;;;;4190641;28;20032;-60
2021/07/05 04:09:41;;;;;;;14.75;6.68;;;16.00;99.90;;;;;;4191785;28;20021;-60
2021/07/05 04:11:43;;;;;;;11.15;5.45;;;16.20;99.90;;;;;;4190801;28;20450;-57
2021/07/05 04:13:44;;;;;;;9.45;5.57;;;16.10;99.90;;;;;;4190794;28;20040;-60
2021/07/05 04:15:45;;;;;;;6.97;5.20;;;16.10;99.90;;;;;;4191125;28;20101;-61
2021/07/05 04:17:46;;;;;;;9.93;5.20;;;16.20;99.90;;;;;;4190133;28;20067;-60
2021/07/05 04:19:48;;;;;;;11.95;5.85;;;16.50;99.90;;;;;;4191297;28;20665;-59
2021/07/05 04:21:49;;;;;;;9.70;5.03;;;16.90;99.90;;;;;;4189687;28;20024;-60
2021/07/05 04:23:50;;;;;;;12.15;6.03;;;17.20;99.90;;;;;;4192140;28;20157;-60
2021/07/05 04:25:53;;;;;;;19.45;7.63;;;17.70;99.90;;;;;;4189082;28;20040;-59
2021/07/05 04:27:55;;;;;;;22.58;6.22;;;18.20;99.90;;;;;;4191519;28;20037;-60
2021/07/05 04:29:57;;;;;;;16.48;5.97;;;18.50;99.90;;;;;;4190295;28;20032;-60
2021/07/05 04:31:58;;;;;;;12.23;4.97;;;19.00;99.90;;;;;;4190704;28;20121;-60
2021/07/05 04:33:59;;;;;;;8.93;5.13;;;19.60;99.90;;;;;;4189198;28;20044;-61
2021/07/05 04:36:00;;;;;;;7.57;4.93;;;20.10;99.90;;;;;;4190050;28;20515;-61
2021/07/05 04:38:04;;;;;;;8.48;4.55;;;20.60;99.90;;;;;;4188930;28;20065;-60
2021/07/05 04:40:08;;;;;;;5.88;3.80;;;21.10;99.90;;;;;;4190751;28;20501;-60
2021/07/05 04:42:09;;;;;;;6.60;3.25;;;21.70;99.90;;;;;;4188759;28;20044;-60
2021/07/05 04:44:13;;;;;;;4.03;3.10;;;22.20;99.90;;;;;;4189582;28;20028;-62
2021/07/05 04:46:16;;;;;;;6.95;2.90;;;22.80;99.90;;;;;;4189570;28;20040;-61
2021/07/05 04:48:17;;;;;;;8.52;3.08;;;23.30;99.90;;;;;;4189365;28;20381;-61
2021/07/05 04:50:18;;;;;;;8.52;3.28;;;23.60;99.90;;;;;;4189852;28;20094;-62
2021/07/05 04:52:20;;;;;;;14.95;3.53;;;24.10;99.90;;;;;;4188502;28;20032;-62
2021/07/05 04:54:21;;;;;;;5.00;2.83;;;24.70;99.90;;;;;;4190203;28;20467;-61
2021/07/05 04:56:22;;;;;;;6.50;2.92;;;25.10;99.90;;;;;;4193656;28;20028;-61
2021/07/05 04:58:23;;;;;;;4.03;2.80;;;25.70;99.90;;;;;;4207343;28;20028;-61
2021/07/05 05:00:30;;;;;;;8.75;2.70;;;26.10;99.40;;;;;;4202188;28;20484;-61
2021/07/05 05:02:32;;;;;;;6.22;2.92;;;26.40;98.50;;;;;;4190438;28;20089;-60
2021/07/05 05:04:33;;;;;;;7.43;2.50;;;26.60;97.60;;;;;;4187818;28;20028;-58
2021/07/05 05:06:34;;;;;;;3.17;2.25;;;26.70;96.90;;;;;;4188856;28;20043;-59
2021/07/05 05:08:35;;;;;;;2.63;2.00;;;26.40;96.20;;;;;;4187864;28;20123;-60
2021/07/05 05:10:37;;;;;;;6.63;2.13;;;26.00;95.70;;;;;;4190573;28;20040;-59
2021/07/05 05:12:39;;;;;;;5.38;2.30;;;25.50;95.60;;;;;;4188753;28;20450;-61
2021/07/05 05:14:40;;;;;;;2.97;2.65;;;25.10;96.30;;;;;;4189077;28;20156;-59
2021/07/05 05:16:41;;;;;;;3.97;2.60;;;25.00;96.60;;;;;;4189253;28;20025;-60
2021/07/05 05:18:43;;;;;;;4.90;2.70;;;25.30;96.00;;;;;;4189307;28;20024;-59
2021/07/05 05:20:44;;;;;;;7.70;3.35;;;25.40;95.90;;;;;;4189764;28;20071;-60
2021/07/05 05:22:46;;;;;;;6.47;2.40;;;25.80;95.40;;;;;;4189022;28;20028;-59
2021/07/05 05:24:47;;;;;;;2.72;2.50;;;25.70;94.80;;;;;;4190433;28;20617;-60
2021/07/05 05:26:48;;;;;;;5.10;2.40;;;25.30;94.60;;;;;;4188612;28;20032;-60
2021/07/05 05:28:50;;;;;;;6.93;2.28;;;25.30;94.80;;;;;;4190058;28;20508;-60
2021/07/05 05:30:51;;;;;;;3.40;2.63;;;25.30;94.50;;;;;;4149068;28;1123652;-59
2021/07/05 05:32:54;;;;;;;4.80;2.53;;;25.00;94.50;;;;;;4190805;28;20485;-60
2021/07/05 05:34:56;;;;;;;3.70;2.30;;;25.40;94.20;;;;;;4189170;28;20089;-60
2021/07/05 05:36:57;;;;;;;2.20;1.85;;;25.70;94.10;;;;;;4190916;28;20052;-60
2021/07/05 05:38:58;;;;;;;7.70;2.30;;;25.90;93.70;;;;;;4189378;28;20796;-60
2021/07/05 05:40:59;;;;;;;4.97;2.60;;;26.00;93.40;;;;;;4191067;28;20044;-60
2021/07/05 05:43:01;;;;;;;6.63;2.17;;;26.40;93.20;;;;;;4188969;28;20443;-60
2021/07/05 05:45:02;;;;;;;10.25;2.30;;;26.70;92.90;;;;;;4190103;28;20020;-60
2021/07/05 05:47:04;;;;;;;7.55;2.10;;;26.90;92.30;;;;;;4189116;28;20492;-60
2021/07/05 05:49:06;;;;;;;7.90;2.30;;;27.00;92.00;;;;;;4189682;28;20370;-61
2021/07/05 05:51:07;;;;;;;4.25;2.05;;;26.80;92.00;;;;;;4189087;28;20070;-60
2021/07/05 05:53:08;;;;;;;4.38;2.92;;;26.90;91.90;;;;;;4189024;28;20476;-60
2021/07/05 05:55:10;;;;;;;6.25;2.58;;;27.00;91.90;;;;;;4190081;28;20028;-59
2021/07/05 05:57:25;;;;;;;3.40;2.88;;;27.00;91.90;;;;;;4189005;28;20028;-60
2021/07/05 05:59:26;;;;;;;7.57;3.40;;;27.00;91.30;;;;;;4189970;28;20098;-60
2021/07/05 06:01:31;;;;;;;3.65;2.20;;;27.00;91.50;;;;;;4188826;28;20028;-60
2021/07/05 06:03:32;;;;;;;8.13;2.10;;;27.30;91.00;;;;;;4190311;28;20040;-60
2021/07/05 06:05:34;;;;;;;6.70;3.40;;;27.30;91.20;;;;;;4188419;28;20553;-60
2021/07/05 06:07:35;;;;;;;5.78;2.40;;;;;;;;;;4190152;28;20094;-60
2021/07/05 06:09:37;;;;;;;5.57;2.80;;;;;;;;;;4188883;28;20028;-61
2021/07/05 06:11:38;;;;;;;5.40;2.10;;;;;;;;;;4190620;28;20485;-60
2021/07/05 06:13:40;;;;;;;6.47;1.90;;;;;;;;;;4188945;28;20089;-60
2021/07/05 06:15:42;;;;;;;6.50;3.45;;;;;;;;;;4190313;28;20024;-60
2021/07/05 06:17:44;;;;;;;4.43;2.30;;;;;;;;;;4188431;28;20025;-61
2021/07/05 06:19:45;;;;;;;4.95;2.13;;;;;;;;;;4189846;28;20101;-60
2021/07/05 06:21:46;;;;;;;3.45;2.50;;;;;;;;;;4188765;28;20029;-60
2021/07/05 06:23:48;;;;;;;5.85;2.42;;;;;;;;;;4188979;28;20423;-60
2021/07/05 06:25:49;;;;;;;6.32;2.50;;;;;;;;;;4189235;28;20050;-60
2021/07/05 06:27:51;;;;;;;4.72;2.30;;;;;;;;;;4188695;28;20365;-60
2021/07/05 06:29:52;;;;;;;4.57;2.33;;;;;;;;;;4189863;28;20058;-61
2021/07/05 06:31:54;;;;;;;4.88;2.40;;;;;;;;;;4188526;28;20129;-60
2021/07/05 06:33:55;;;;;;;5.25;3.35;;;;;;;;;;4190015;28;20037;-60
2021/07/05 06:35:57;;;;;;;3.50;1.85;;;;;;;;;;4188240;28;20029;-61
2021/07/05 06:37:58;;;;;;;1.77;1.67;;;;;;;;;;4190305;28;20021;-62
2021/07/05 06:40:00;;;;;;;2.35;1.80;;;;;;;;;;4188687;28;20411;-60
2021/07/05 06:42:01;;;;;;;2.22;1.88;;;;;;;;;;4190000;28;20357;-60
2021/07/05 06:44:03;;;;;;;3.92;2.75;;;;;;;;;;4188121;28;20093;-60
2021/07/05 06:46:04;;;;;;;6.47;2.97;;;;;;;;;;4190143;28;20028;-60
2021/07/05 06:48:06;;;;;;;2.90;1.85;;;;;;;;;;4188580;28;20033;-61
2021/07/05 06:50:08;;;;;;;7.45;4.25;;;;;;;;;;4189925;28;20106;-60
2021/07/05 06:52:09;;;;;;;2.30;2.00;;;27.50;91.10;;;;;;4188260;28;20105;-60
2021/07/05 06:54:11;;;;;;;2.20;2.00;;;30.30;83.30;;;;;;4189233;28;20113;-60
2021/07/05 06:56:12;;;;;;;3.15;2.42;;;;;;;;;;4188113;28;20020;-61
2021/07/05 06:58:14;;;;;;;3.45;2.17;;;;;;;;;;4188708;28;20032;-60
2021/07/05 07:00:19;;;;;;;4.57;2.95;;;;;;;;;;4188011;28;20648;-59
2021/07/05 07:02:21;;;;;;;4.80;2.13;;;;;;;;;;4187829;28;20070;-60
2021/07/05 07:04:22;;;;;;;2.97;2.50;;;;;;;;;;4187998;28;20082;-60
2021/07/05 07:06:23;;;;;;;5.22;3.10;;;30.70;81.80;;;;;;4187413;28;20028;-60
2021/07/05 07:08:24;;;;;;;4.18;2.28;;;29.10;82.10;;;;;;4189091;28;20465;-59
2021/07/05 07:10:27;;;;;;;3.67;2.30;;;29.00;83.30;;;;;;4188462;28;20013;-59
2021/07/05 07:12:28;;;;;;;4.93;2.88;;;29.00;83.10;;;;;;4189289;28;20028;-60
2021/07/05 07:14:29;;;;;;;3.08;2.40;;;28.70;83.20;;;;;;4187551;28;20041;-60
2021/07/05 07:16:33;;;;;;;3.25;2.33;;;28.50;83.50;;;;;;4189869;28;20070;-60
2021/07/05 07:18:47;;;;;;;6.45;3.30;;;28.30;84.30;;;;;;4187662;28;20110;-61
2021/07/05 07:20:48;;;;;;;7.68;3.65;;;28.50;84.30;;;;;;4189193;28;20082;-61
2021/07/05 07:22:49;;;;;;;6.32;3.20;;;28.10;85.00;;;;;;4188014;28;20062;-60
2021/07/05 07:24:50;;;;;;;7.95;3.60;;;28.10;86.00;;;;;;4189546;28;20358;-60
2021/07/05 07:26:54;;;;;;;11.95;4.03;;;27.90;86.60;;;;;;4187722;28;20028;-60
2021/07/05 07:28:56;;;;;;;7.47;3.85;;;27.90;87.00;;;;;;4189674;28;20925;-60
2021/07/05 07:30:57;;;;;;;12.50;7.68;;;27.30;87.80;;;;;;4186460;28;20083;-60
2021/07/05 07:32:58;;;;;;;11.20;4.90;;;26.50;89.40;;;;;;4189045;28;20388;-59
2021/07/05 07:34:59;;;;;;;5.60;3.08;;;26.50;90.10;;;;;;4188894;28;20044;-60
2021/07/05 07:37:04;;;;;;;9.52;3.58;;;26.60;90.20;;;;;;4188087;28;20538;-61
2021/07/05 07:39:08;;;;;;;7.13;4.05;;;26.80;90.10;;;;;;4189245;28;20830;-60
2021/07/05 07:41:10;;;;;;;6.82;2.65;;;26.90;90.30;;;;;;4188305;28;20037;-61
2021/07/05 07:43:11;;;;;;;4.35;3.08;;;27.20;90.20;;;;;;4189602;28;20028;-60
2021/07/05 07:45:13;;;;;;;4.95;2.63;;;27.50;89.90;;;;;;4187698;28;20101;-60
2021/07/05 07:47:14;;;;;;;8.52;3.40;;;27.70;89.40;;;;;;4188774;28;20473;-60
2021/07/05 07:49:16;;;;;;;9.75;3.60;;;27.70;89.30;;;;;;4187500;28;20040;-60
2021/07/05 07:51:18;;;;;;;6.40;3.20;;;27.50;90.00;;;;;;4189083;28;20040;-60
2021/07/05 07:53:19;;;;;;;7.00;3.92;;;27.50;89.90;;;;;;4188093;28;20576;-59
2021/07/05 07:55:20;;;;;;;5.25;2.40;;;27.40;90.20;;;;;;4189126;28;20083;-60
2021/07/05 07:57:21;;;;;;;8.00;2.30;;;27.50;90.30;;;;;;4187486;28;20101;-61
2021/07/05 07:59:23;;;;;;;13.07;5.68;;;27.40;90.30;;;;;;4188832;28;20029;-60
2021/07/05 08:01:24;;;;;;;3.85;2.33;;;27.20;90.80;;;;;;4187754;28;20480;-61
2021/07/05 08:03:26;;;;;;;2.78;1.90;;;27.40;90.80;;;;;;4188494;28;20522;-60
2021/07/05 08:05:28;;;;;;;3.53;1.95;;;27.40;90.40;;;;;;4188163;28;20036;-60
2021/07/05 08:07:29;;;;;;;1.55;1.45;;;27.50;90.30;;;;;;4188293;28;20436;-61
2021/07/05 08:09:30;;;;;;;2.45;2.00;;;27.50;90.20;;;;;;4188576;28;20086;-61
2021/07/05 08:11:32;;;;;;;2.60;1.88;;;27.60;90.00;;;;;;4187586;28;20050;-60
2021/07/05 08:13:33;;;;;;;2.60;1.95;;;27.70;90.00;;;;;;4190144;28;20037;-60
2021/07/05 08:15:35;;;;;;;5.25;2.88;;;27.50;89.10;;;;;;4190416;28;20408;-60
2021/07/05 08:17:36;;;;;;;2.95;2.17;;;27.00;89.60;;;;;;4191463;28;20338;-61
2021/07/05 08:19:37;;;;;;;3.65;2.17;;;27.00;90.30;;;;;;4190188;28;20546;-60
2021/07/05 08:21:38;;;;;;;1.92;1.50;;;27.20;90.20;;;;;;4191598;28;20036;-60
2021/07/05 08:23:41;;;;;;;1.67;1.58;;;27.20;90.00;;;;;;4190050;28;20070;-61
2021/07/05 08:25:44;;;;;;;3.00;1.67;;;27.20;89.90;;;;;;4192088;28;20033;-61
2021/07/05 08:27:45;;;;;;;1.70;1.50;;;26.90;89.90;;;;;;4190146;28;20016;-60
2021/07/05 08:29:46;;;;;;;3.15;1.73;;;26.80;90.00;;;;;;4192064;28;20542;-60
2021/07/05 08:31:47;;;;;;;1.70;1.60;;;26.80;90.20;;;;;;4190267;28;20060;-60
2021/07/05 08:33:51;;;;;;;2.88;1.70;;;26.80;90.30;;;;;;4191797;28;20048;-60
2021/07/05 08:35:52;;;;;;;1.80;1.40;;;26.80;90.30;;;;;;4190513;28;20086;-61
2021/07/05 08:37:53;;;;;;;2.92;1.60;;;26.90;90.10;;;;;;4190541;28;20420;-63
2021/07/05 08:39:54;;;;;;;5.25;2.50;;;26.90;90.10;;;;;;4191140;28;20036;-61
2021/07/05 08:41:55;;;;;;;8.27;4.45;;;26.70;90.30;;;;;;4190615;28;20036;-61
2021/07/05 08:43:57;;;;;;;3.25;1.80;;;26.70;90.60;;;;;;4191492;28;20028;-62
2021/07/05 08:46:01;;;;;;;2.17;1.85;;;26.70;90.50;;;;;;4190397;28;20024;-61
2021/07/05 08:48:03;;;;;;;3.92;1.88;;;27.00;90.40;;;;;;4191265;28;20028;-61
2021/07/05 08:50:07;;;;;;;2.22;2.13;;;27.20;90.30;;;;;;4188597;28;20090;-60
2021/07/05 08:52:08;;;;;;;5.50;2.70;;;27.40;90.20;;;;;;4191431;28;20074;-61
2021/07/05 08:54:09;;;;;;;2.78;2.05;;;27.40;90.10;;;;;;4188479;28;20132;-60
2021/07/05 08:56:10;;;;;;;9.57;2.85;;;27.40;90.20;;;;;;4191318;28;20028;-61
2021/07/05 08:58:12;;;;;;;3.75;1.90;;;27.40;90.10;;;;;;4189831;28;20066;-61
2021/07/05 09:00:17;;;;;;;3.45;2.25;;;27.00;90.10;;;;;;4191508;28;20033;-61
2021/07/05 09:02:18;;;;;;;3.00;1.92;;;27.00;90.70;;;;;;4189551;28;20032;-61
2021/07/05 09:04:19;;;;;;;2.85;1.88;;;27.00;90.50;;;;;;4190896;28;20086;-61
2021/07/05 09:06:23;;;;;;;3.17;2.17;;;27.10;90.40;;;;;;4189576;28;20037;-61
2021/07/05 09:08:25;;;;;;;2.03;1.83;;;27.30;90.30;;;;;;4191030;28;20473;-60
2021/07/05 09:10:27;;;;;;;4.53;1.65;;;27.40;90.10;;;;;;4190196;28;20404;-61
2021/07/05 09:12:28;;;;;;;2.10;1.90;;;27.30;90.00;;;;;;4190662;28;20404;-60
2021/07/05 09:14:29;;;;;;;3.72;1.60;;;27.40;90.10;;;;;;4190093;28;20052;-60
2021/07/05 09:16:36;;;;;;;1.88;1.55;;;27.50;90.00;;;;;;4189714;28;20029;-61
2021/07/05 09:18:46;;;;;;;3.15;1.80;;;27.50;90.00;;;;;;4190314;28;20086;-61
2021/07/05 09:20:47;;;;;;;2.05;1.90;;;27.70;90.00;;;;;;4189235;28;20111;-62
2021/07/05 09:23:09;;;;;;;1.63;1.52;;;27.70;89.80;;;;;;4191049;28;20872;-62
2021/07/05 09:25:10;;;;;;;8.40;2.88;;;27.40;89.10;;;;;;4188381;28;20447;-61
2021/07/05 09:27:19;;;;;;;6.28;2.03;;;27.40;89.80;;;;;;4190561;28;20447;-62
2021/07/05 09:29:22;;;;;;;6.28;2.30;;;27.20;89.50;;;;;;4189345;28;20021;-61
2021/07/05 09:31:44;;;;;;;5.20;2.55;;;27.20;89.70;;;;;;4190801;28;20052;-61
2021/07/05 09:33:46;;;;;;;3.45;2.30;;;27.00;89.00;;;;;;4189321;28;20085;-61
2021/07/05 09:35:50;;;;;;;2.95;2.40;;;26.90;90.20;;;;;;4191009;28;20052;-61
2021/07/05 09:37:54;;;;;;;4.00;1.98;;;26.90;90.00;;;;;;4189450;28;20078;-61
2021/07/05 09:40:07;;;;;;;3.17;2.53;;;26.90;90.00;;;;;;4191060;28;20028;-61
2021/07/05 09:42:15;;;;;;;2.97;2.13;;;27.00;88.70;;;;;;4188776;28;20029;-61
2021/07/05 09:44:21;;;;;;;2.08;1.73;;;26.90;89.60;;;;;;4190384;28;20036;-61
2021/07/05 09:46:42;;;;;;;1.77;1.40;;;26.90;89.20;;;;;;4188857;28;20028;-61
2021/07/05 09:48:46;;;;;;;6.32;1.77;;;26.90;87.80;;;;;;4190128;28;20033;-62
2021/07/05 09:50:50;;;;;;;3.60;1.80;;;27.10;88.80;;;;;;4189059;28;20021;-61
2021/07/05 09:52:51;;;;;;;2.85;1.98;;;27.10;88.40;;;;;;4190363;28;20029;-62
2021/07/05 09:54:58;;;;;;;2.30;2.13;;;26.80;88.50;;;;;;4188538;28;20494;-61
2021/07/05 09:57:01;;;;;;;5.35;2.67;;;26.80;88.20;;;;;;4190277;28;20044;-62
2021/07/05 09:59:21;;;;;;;3.97;2.08;;;26.60;89.70;;;;;;4188643;28;20025;-61
2021/07/05 10:01:37;;;;;;;3.35;2.05;;;26.40;88.70;;;;;;4189624;28;20024;-61
2021/07/05 10:03:40;;;;;;;2.88;2.10;;;26.20;89.90;;;;;;4187665;28;20114;-61
2021/07/05 10:05:47;;;;;;;2.17;1.67;;;26.20;90.20;;;;;;4190213;28;20016;-61
2021/07/05 10:08:05;;;;;;;5.75;2.95;;;26.10;90.10;;;;;;4186826;28;20090;-61
2021/07/05 10:10:18;;;;;;;3.35;2.00;;;26.10;90.60;;;;;;4190587;28;20024;-61
2021/07/05 10:12:30;;;;;;;6.00;2.42;;;26.10;90.40;;;;;;4188102;28;20032;-61
2021/07/05 10:14:31;;;;;;;5.28;2.05;;;25.90;90.40;;;;;;4189096;28;20052;-60
2021/07/05 10:16:32;;;;;;;10.07;3.28;;;25.90;90.70;;;;;;4188370;28;20032;-61
2021/07/05 10:18:34;;;;;;;4.65;1.90;;;26.10;90.80;;;;;;4190301;28;20125;-61
2021/07/05 10:20:41;;;;;;;3.60;1.85;;;26.20;90.30;;;;;;4188470;28;20062;-61
2021/07/05 10:22:44;;;;;;;6.30;2.47;;;26.20;90.50;;;;;;4190068;28;20121;-61
2021/07/05 10:24:46;;;;;;;6.82;2.90;;;26.30;90.30;;;;;;4188324;28;20017;-61
2021/07/05 10:26:48;;;;;;;5.93;2.47;;;26.10;90.70;;;;;;4189877;28;20477;-62
2021/07/05 10:28:49;;;;;;;5.65;2.20;;;26.10;90.70;;;;;;4188721;28;20466;-61
2021/07/05 10:30:52;;;;;;;5.05;2.72;;;25.90;90.90;;;;;;4189814;28;20082;-62
2021/07/05 10:32:55;;;;;;;2.50;2.20;;;25.90;91.00;;;;;;4188614;28;20024;-61
2021/07/05 10:34:57;;;;;;;5.20;2.20;;;25.70;91.20;;;;;;4189268;28;20098;-61
2021/07/05 10:37:02;;;;;;;6.07;2.72;;;25.90;91.40;;;;;;4187680;28;20029;-61
2021/07/05 10:39:05;;;;;;;6.70;2.30;;;26.00;90.90;;;;;;4188964;28;20033;-61
2021/07/05 10:41:12;;;;;;;3.67;2.70;;;25.80;90.80;;;;;;4189022;28;20476;-61
2021/07/05 10:43:34;;;;;;;5.28;2.00;;;26.00;91.10;;;;;;4188631;28;20067;-61
2021/07/05 10:45:39;;;;;;;8.45;3.55;;;26.20;90.90;;;;;;4188239;28;20086;-62